sensor_id;sensor_type;location;lat;lon;timestamp;temperature;humidity
79301;SHT31;68755;51.984;5.646;2023-03-31T00:00:14;12.5;72.5
79301;SHT31;68755;51.984;5.646;2023-03-31T00:02:45;12.5;72.7
79301;SHT31;68755;51.984;5.646;2023-03-31T00:05:14;12.5;72.9
79301;SHT31;68755;51.984;5.646;2023-03-31T00:07:44;12.5;72.8
79301;SHT31;68755;51.984;5.646;2023-03-31T00:10:15;12.6;72.9
79301;SHT31;68755;51.984;5.646;2023-03-31T00:12:45;12.6;72.9
79301;SHT31;68755;51.984;5.646;2023-03-31T00:15:15;12.6;72.9
79301;SHT31;68755;51.984;5.646;2023-03-31T00:17:45;12.6;72.9
79301;SHT31;68755;51.984;5.646;2023-03-31T00:20:16;12.6;72.9
79301;SHT31;68755;51.984;5.646;2023-03-31T00:22:46;12.6;73.1
79301;SHT31;68755;51.984;5.646;2023-03-31T00:25:16;12.6;73.0
79301;SHT31;68755;51.984;5.646;2023-03-31T00:27:45;12.7;73.0
79301;SHT31;68755;51.984;5.646;2023-03-31T00:30:16;12.7;73.0
79301;SHT31;68755;51.984;5.646;2023-03-31T00:32:47;12.7;73.1
79301;SHT31;68755;51.984;5.646;2023-03-31T00:35:16;12.7;73.0
79301;SHT31;68755;51.984;5.646;2023-03-31T00:37:46;12.7;72.9
79301;SHT31;68755;51.984;5.646;2023-03-31T00:40:15;12.8;72.9
79301;SHT31;68755;51.984;5.646;2023-03-31T00:42:45;12.8;72.9
79301;SHT31;68755;51.984;5.646;2023-03-31T00:45:23;12.8;72.8
79301;SHT31;68755;51.984;5.646;2023-03-31T00:48:00;12.9;72.4
79301;SHT31;68755;51.984;5.646;2023-03-31T00:50:35;12.9;72.5
79301;SHT31;68755;51.984;5.646;2023-03-31T00:53:10;12.9;72.5
79301;SHT31;68755;51.984;5.646;2023-03-31T00:55:44;12.9;72.8
79301;SHT31;68755;51.984;5.646;2023-03-31T00:58:15;12.9;73.0
79301;SHT31;68755;51.984;5.646;2023-03-31T01:00:48;12.9;73.5
79301;SHT31;68755;51.984;5.646;2023-03-31T01:03:22;13.0;73.8
79301;SHT31;68755;51.984;5.646;2023-03-31T01:05:55;13.0;73.9
79301;SHT31;68755;51.984;5.646;2023-03-31T01:08:26;13.0;74.1
79301;SHT31;68755;51.984;5.646;2023-03-31T01:10:59;13.0;74.3
79301;SHT31;68755;51.984;5.646;2023-03-31T01:13:30;13.0;74.7
79301;SHT31;68755;51.984;5.646;2023-03-31T01:16:00;13.0;74.7
79301;SHT31;68755;51.984;5.646;2023-03-31T01:18:30;13.0;74.8
79301;SHT31;68755;51.984;5.646;2023-03-31T01:21:22;12.9;74.9
79301;SHT31;68755;51.984;5.646;2023-03-31T01:24:57;12.9;74.9
79301;SHT31;68755;51.984;5.646;2023-03-31T01:27:38;12.9;74.9
79301;SHT31;68755;51.984;5.646;2023-03-31T01:34:39;13.0;74.7
79301;SHT31;68755;51.984;5.646;2023-03-31T01:37:55;13.0;74.7
79301;SHT31;68755;51.984;5.646;2023-03-31T01:40:48;13.0;74.5
79301;SHT31;68755;51.984;5.646;2023-03-31T01:43:28;13.0;74.7
79301;SHT31;68755;51.984;5.646;2023-03-31T01:46:07;13.0;74.6
79301;SHT31;68755;51.984;5.646;2023-03-31T01:48:47;12.9;74.5
79301;SHT31;68755;51.984;5.646;2023-03-31T01:51:31;12.9;74.5
79301;SHT31;68755;51.984;5.646;2023-03-31T01:54:10;12.9;74.4
79301;SHT31;68755;51.984;5.646;2023-03-31T01:56:45;12.9;74.4
79301;SHT31;68755;51.984;5.646;2023-03-31T01:59:24;12.9;74.4
79301;SHT31;68755;51.984;5.646;2023-03-31T02:02:00;12.9;74.5
79301;SHT31;68755;51.984;5.646;2023-03-31T02:04:36;13.0;74.5
79301;SHT31;68755;51.984;5.646;2023-03-31T02:07:13;13.0;74.7
79301;SHT31;68755;51.984;5.646;2023-03-31T02:09:49;13.1;74.3
79301;SHT31;68755;51.984;5.646;2023-03-31T02:12:25;13.1;73.9
79301;SHT31;68755;51.984;5.646;2023-03-31T02:14:59;13.2;73.6
79301;SHT31;68755;51.984;5.646;2023-03-31T02:17:31;13.2;73.3
79301;SHT31;68755;51.984;5.646;2023-03-31T02:20:10;13.2;73.4
79301;SHT31;68755;51.984;5.646;2023-03-31T02:22:46;13.2;73.3
79301;SHT31;68755;51.984;5.646;2023-03-31T02:25:22;13.1;73.4
79301;SHT31;68755;51.984;5.646;2023-03-31T02:27:55;13.1;73.6
79301;SHT31;68755;51.984;5.646;2023-03-31T02:30:31;13.1;73.6
79301;SHT31;68755;51.984;5.646;2023-03-31T02:33:05;13.1;73.9
79301;SHT31;68755;51.984;5.646;2023-03-31T02:35:35;13.1;73.9
79301;SHT31;68755;51.984;5.646;2023-03-31T02:38:05;13.0;74.1
79301;SHT31;68755;51.984;5.646;2023-03-31T02:40:35;13.0;74.3
79301;SHT31;68755;51.984;5.646;2023-03-31T02:43:04;13.0;74.7
79301;SHT31;68755;51.984;5.646;2023-03-31T02:45:39;13.0;75.0
79301;SHT31;68755;51.984;5.646;2023-03-31T02:48:13;13.0;75.4
79301;SHT31;68755;51.984;5.646;2023-03-31T02:51:38;13.0;75.7
79301;SHT31;68755;51.984;5.646;2023-03-31T02:54:30;12.9;76.0
79301;SHT31;68755;51.984;5.646;2023-03-31T02:57:18;12.9;76.0
79301;SHT31;68755;51.984;5.646;2023-03-31T03:00:00;12.9;76.0
79301;SHT31;68755;51.984;5.646;2023-03-31T03:02:47;12.9;76.1
79301;SHT31;68755;51.984;5.646;2023-03-31T03:05:37;12.9;76.1
79301;SHT31;68755;51.984;5.646;2023-03-31T03:08:19;12.8;76.1
79301;SHT31;68755;51.984;5.646;2023-03-31T03:11:03;12.8;76.0
79301;SHT31;68755;51.984;5.646;2023-03-31T03:13:45;12.8;76.0
79301;SHT31;68755;51.984;5.646;2023-03-31T03:16:20;12.8;76.0
79301;SHT31;68755;51.984;5.646;2023-03-31T03:18:57;12.8;75.9
79301;SHT31;68755;51.984;5.646;2023-03-31T03:21:28;12.8;75.9
79301;SHT31;68755;51.984;5.646;2023-03-31T03:23:58;12.8;76.0
79301;SHT31;68755;51.984;5.646;2023-03-31T03:26:28;12.8;75.7
79301;SHT31;68755;51.984;5.646;2023-03-31T03:29:02;12.7;75.6
79301;SHT31;68755;51.984;5.646;2023-03-31T03:31:31;12.7;75.7
79301;SHT31;68755;51.984;5.646;2023-03-31T03:34:03;12.7;75.5
79301;SHT31;68755;51.984;5.646;2023-03-31T03:36:33;12.8;75.7
79301;SHT31;68755;51.984;5.646;2023-03-31T03:39:03;12.8;75.7
79301;SHT31;68755;51.984;5.646;2023-03-31T03:41:35;12.8;75.6
79301;SHT31;68755;51.984;5.646;2023-03-31T03:44:06;12.8;75.6
79301;SHT31;68755;51.984;5.646;2023-03-31T03:46:36;12.8;75.6
79301;SHT31;68755;51.984;5.646;2023-03-31T03:49:05;12.8;75.7
79301;SHT31;68755;51.984;5.646;2023-03-31T03:51:35;12.8;75.8
79301;SHT31;68755;51.984;5.646;2023-03-31T03:54:04;12.8;75.8
79301;SHT31;68755;51.984;5.646;2023-03-31T03:56:34;12.9;75.7
79301;SHT31;68755;51.984;5.646;2023-03-31T03:59:04;12.9;75.8
79301;SHT31;68755;51.984;5.646;2023-03-31T04:01:33;12.9;75.7
79301;SHT31;68755;51.984;5.646;2023-03-31T04:04:04;13.0;75.8
79301;SHT31;68755;51.984;5.646;2023-03-31T04:06:34;13.0;75.5
79301;SHT31;68755;51.984;5.646;2023-03-31T04:09:04;13.0;75.5
79301;SHT31;68755;51.984;5.646;2023-03-31T04:11:34;13.0;75.6
79301;SHT31;68755;51.984;5.646;2023-03-31T04:14:04;12.9;75.7
79301;SHT31;68755;51.984;5.646;2023-03-31T04:16:33;12.9;75.8
79301;SHT31;68755;51.984;5.646;2023-03-31T04:19:05;12.9;76.1
79301;SHT31;68755;51.984;5.646;2023-03-31T04:21:38;12.9;76.4
79301;SHT31;68755;51.984;5.646;2023-03-31T04:24:12;12.8;76.5
79301;SHT31;68755;51.984;5.646;2023-03-31T04:26:47;12.8;76.5
79301;SHT31;68755;51.984;5.646;2023-03-31T04:29:17;12.8;76.9
79301;SHT31;68755;51.984;5.646;2023-03-31T04:31:51;12.8;76.8
79301;SHT31;68755;51.984;5.646;2023-03-31T04:34:26;12.8;77.1
79301;SHT31;68755;51.984;5.646;2023-03-31T04:37:02;12.8;76.8
79301;SHT31;68755;51.984;5.646;2023-03-31T04:39:34;12.8;76.6
79301;SHT31;68755;51.984;5.646;2023-03-31T04:42:03;12.8;76.3
79301;SHT31;68755;51.984;5.646;2023-03-31T04:44:33;12.8;76.7
79301;SHT31;68755;51.984;5.646;2023-03-31T04:47:02;12.8;76.8
79301;SHT31;68755;51.984;5.646;2023-03-31T04:49:33;12.8;76.8
79301;SHT31;68755;51.984;5.646;2023-03-31T04:52:03;12.8;76.9
79301;SHT31;68755;51.984;5.646;2023-03-31T04:54:33;12.9;76.9
79301;SHT31;68755;51.984;5.646;2023-03-31T04:57:03;12.9;76.9
79301;SHT31;68755;51.984;5.646;2023-03-31T04:59:33;13.0;76.7
79301;SHT31;68755;51.984;5.646;2023-03-31T05:02:03;13.0;76.2
79301;SHT31;68755;51.984;5.646;2023-03-31T05:04:32;13.1;75.8
79301;SHT31;68755;51.984;5.646;2023-03-31T05:07:02;13.1;75.5
79301;SHT31;68755;51.984;5.646;2023-03-31T05:09:32;13.2;75.0
79301;SHT31;68755;51.984;5.646;2023-03-31T05:12:04;13.2;74.9
79301;SHT31;68755;51.984;5.646;2023-03-31T05:14:34;13.2;74.6
79301;SHT31;68755;51.984;5.646;2023-03-31T05:17:04;13.2;74.2
79301;SHT31;68755;51.984;5.646;2023-03-31T05:19:34;13.2;74.2
79301;SHT31;68755;51.984;5.646;2023-03-31T05:22:03;13.2;74.4
79301;SHT31;68755;51.984;5.646;2023-03-31T05:24:33;13.1;74.6
79301;SHT31;68755;51.984;5.646;2023-03-31T05:27:03;13.1;74.5
79301;SHT31;68755;51.984;5.646;2023-03-31T05:29:33;13.0;74.8
79301;SHT31;68755;51.984;5.646;2023-03-31T05:32:03;13.0;75.0
79301;SHT31;68755;51.984;5.646;2023-03-31T05:34:32;12.9;75.2
79301;SHT31;68755;51.984;5.646;2023-03-31T05:37:02;12.9;75.5
79301;SHT31;68755;51.984;5.646;2023-03-31T05:39:32;12.8;75.8
79301;SHT31;68755;51.984;5.646;2023-03-31T05:42:02;12.8;75.9
79301;SHT31;68755;51.984;5.646;2023-03-31T05:44:32;12.7;75.7
79301;SHT31;68755;51.984;5.646;2023-03-31T05:47:02;12.7;75.8
79301;SHT31;68755;51.984;5.646;2023-03-31T05:49:32;12.6;76.1
79301;SHT31;68755;51.984;5.646;2023-03-31T05:52:02;12.6;76.3
79301;SHT31;68755;51.984;5.646;2023-03-31T05:54:34;12.6;76.2
79301;SHT31;68755;51.984;5.646;2023-03-31T05:57:04;12.5;76.4
79301;SHT31;68755;51.984;5.646;2023-03-31T05:59:33;12.5;76.6
79301;SHT31;68755;51.984;5.646;2023-03-31T06:02:04;12.5;76.9
79301;SHT31;68755;51.984;5.646;2023-03-31T06:04:34;12.4;77.3
79301;SHT31;68755;51.984;5.646;2023-03-31T06:07:04;12.4;77.3
79301;SHT31;68755;51.984;5.646;2023-03-31T06:09:36;12.4;76.9
79301;SHT31;68755;51.984;5.646;2023-03-31T06:12:06;12.4;76.9
79301;SHT31;68755;51.984;5.646;2023-03-31T06:14:36;12.4;76.8
79301;SHT31;68755;51.984;5.646;2023-03-31T06:17:06;12.4;77.0
79301;SHT31;68755;51.984;5.646;2023-03-31T06:19:35;12.4;76.9
79301;SHT31;68755;51.984;5.646;2023-03-31T06:22:06;12.4;77.1
79301;SHT31;68755;51.984;5.646;2023-03-31T06:24:36;12.4;77.4
79301;SHT31;68755;51.984;5.646;2023-03-31T06:27:07;12.4;77.2
79301;SHT31;68755;51.984;5.646;2023-03-31T06:29:36;12.4;77.5
79301;SHT31;68755;51.984;5.646;2023-03-31T06:32:06;12.4;77.5
79301;SHT31;68755;51.984;5.646;2023-03-31T06:34:35;12.4;77.3
79301;SHT31;68755;51.984;5.646;2023-03-31T06:37:05;12.4;77.4
79301;SHT31;68755;51.984;5.646;2023-03-31T06:39:34;12.4;77.1
79301;SHT31;68755;51.984;5.646;2023-03-31T06:42:06;12.4;77.1
79301;SHT31;68755;51.984;5.646;2023-03-31T06:44:35;12.4;77.2
79301;SHT31;68755;51.984;5.646;2023-03-31T06:47:05;12.4;77.3
79301;SHT31;68755;51.984;5.646;2023-03-31T06:49:35;12.4;76.9
79301;SHT31;68755;51.984;5.646;2023-03-31T06:52:04;12.4;76.9
79301;SHT31;68755;51.984;5.646;2023-03-31T06:54:34;12.4;77.1
79301;SHT31;68755;51.984;5.646;2023-03-31T06:57:04;12.4;77.0
79301;SHT31;68755;51.984;5.646;2023-03-31T06:59:33;12.4;76.8
79301;SHT31;68755;51.984;5.646;2023-03-31T07:02:03;12.4;76.9
79301;SHT31;68755;51.984;5.646;2023-03-31T07:04:33;12.4;77.0
79301;SHT31;68755;51.984;5.646;2023-03-31T07:07:02;12.5;76.9
79301;SHT31;68755;51.984;5.646;2023-03-31T07:09:32;12.5;77.0
79301;SHT31;68755;51.984;5.646;2023-03-31T07:12:02;12.5;77.4
79301;SHT31;68755;51.984;5.646;2023-03-31T07:14:33;12.5;77.3
79301;SHT31;68755;51.984;5.646;2023-03-31T07:17:02;12.5;77.2
79301;SHT31;68755;51.984;5.646;2023-03-31T07:19:32;12.5;77.2
79301;SHT31;68755;51.984;5.646;2023-03-31T07:22:04;12.5;76.9
79301;SHT31;68755;51.984;5.646;2023-03-31T07:24:33;12.5;77.0
79301;SHT31;68755;51.984;5.646;2023-03-31T07:27:03;12.5;77.1
79301;SHT31;68755;51.984;5.646;2023-03-31T07:29:33;12.5;77.4
79301;SHT31;68755;51.984;5.646;2023-03-31T07:32:02;12.5;77.8
79301;SHT31;68755;51.984;5.646;2023-03-31T07:34:34;12.5;77.9
79301;SHT31;68755;51.984;5.646;2023-03-31T07:37:03;12.5;77.9
79301;SHT31;68755;51.984;5.646;2023-03-31T07:39:34;12.4;77.7
79301;SHT31;68755;51.984;5.646;2023-03-31T07:42:04;12.4;78.1
79301;SHT31;68755;51.984;5.646;2023-03-31T07:44:34;12.4;78.6
79301;SHT31;68755;51.984;5.646;2023-03-31T07:47:04;12.4;78.3
79301;SHT31;68755;51.984;5.646;2023-03-31T07:49:35;12.4;78.1
79301;SHT31;68755;51.984;5.646;2023-03-31T07:52:04;12.4;77.9
79301;SHT31;68755;51.984;5.646;2023-03-31T07:54:34;12.4;78.2
79301;SHT31;68755;51.984;5.646;2023-03-31T07:57:04;12.4;78.3
79301;SHT31;68755;51.984;5.646;2023-03-31T07:59:37;12.4;78.7
79301;SHT31;68755;51.984;5.646;2023-03-31T08:02:13;12.4;79.1
79301;SHT31;68755;51.984;5.646;2023-03-31T08:04:44;12.4;79.1
79301;SHT31;68755;51.984;5.646;2023-03-31T08:07:15;12.4;79.4
79301;SHT31;68755;51.984;5.646;2023-03-31T08:09:45;12.4;79.5
79301;SHT31;68755;51.984;5.646;2023-03-31T08:12:19;12.4;80.0
79301;SHT31;68755;51.984;5.646;2023-03-31T08:14:49;12.4;80.2
79301;SHT31;68755;51.984;5.646;2023-03-31T08:17:18;12.4;79.8
79301;SHT31;68755;51.984;5.646;2023-03-31T08:19:48;12.4;80.2
79301;SHT31;68755;51.984;5.646;2023-03-31T08:22:18;12.5;79.7
79301;SHT31;68755;51.984;5.646;2023-03-31T08:24:49;12.5;80.3
79301;SHT31;68755;51.984;5.646;2023-03-31T08:27:21;12.5;80.7
79301;SHT31;68755;51.984;5.646;2023-03-31T08:29:52;12.5;80.7
79301;SHT31;68755;51.984;5.646;2023-03-31T08:32:23;12.6;80.9
79301;SHT31;68755;51.984;5.646;2023-03-31T08:34:52;12.6;81.2
79301;SHT31;68755;51.984;5.646;2023-03-31T08:37:22;12.7;81.9
79301;SHT31;68755;51.984;5.646;2023-03-31T08:39:52;12.7;81.6
79301;SHT31;68755;51.984;5.646;2023-03-31T08:42:32;12.8;81.1
79301;SHT31;68755;51.984;5.646;2023-03-31T08:45:10;12.8;81.9
79301;SHT31;68755;51.984;5.646;2023-03-31T08:47:47;12.9;81.8
79301;SHT31;68755;51.984;5.646;2023-03-31T08:50:22;12.9;82.8
79301;SHT31;68755;51.984;5.646;2023-03-31T08:52:58;13.0;83.0
79301;SHT31;68755;51.984;5.646;2023-03-31T08:55:39;13.1;82.0
79301;SHT31;68755;51.984;5.646;2023-03-31T08:58:26;13.2;81.1
79301;SHT31;68755;51.984;5.646;2023-03-31T09:01:03;13.3;80.5
79301;SHT31;68755;51.984;5.646;2023-03-31T09:03:44;13.3;79.9
79301;SHT31;68755;51.984;5.646;2023-03-31T09:06:20;13.4;79.5
79301;SHT31;68755;51.984;5.646;2023-03-31T09:08:51;13.4;79.5
79301;SHT31;68755;51.984;5.646;2023-03-31T09:11:34;13.4;78.9
79301;SHT31;68755;51.984;5.646;2023-03-31T09:14:26;13.5;79.1
79301;SHT31;68755;51.984;5.646;2023-03-31T09:17:10;13.5;79.6
79301;SHT31;68755;51.984;5.646;2023-03-31T09:19:46;13.6;79.2
79301;SHT31;68755;51.984;5.646;2023-03-31T09:22:21;13.6;78.3
79301;SHT31;68755;51.984;5.646;2023-03-31T09:24:58;13.6;78.5
79301;SHT31;68755;51.984;5.646;2023-03-31T09:27:35;13.6;78.7
79301;SHT31;68755;51.984;5.646;2023-03-31T09:30:15;13.7;78.7
79301;SHT31;68755;51.984;5.646;2023-03-31T09:32:47;13.7;78.9
79301;SHT31;68755;51.984;5.646;2023-03-31T09:35:20;13.7;79.2
79301;SHT31;68755;51.984;5.646;2023-03-31T09:37:52;13.8;78.4
79301;SHT31;68755;51.984;5.646;2023-03-31T09:40:26;13.8;78.2
79301;SHT31;68755;51.984;5.646;2023-03-31T09:42:59;13.8;78.6
79301;SHT31;68755;51.984;5.646;2023-03-31T09:45:30;13.9;77.7
79301;SHT31;68755;51.984;5.646;2023-03-31T09:48:05;13.9;77.5
79301;SHT31;68755;51.984;5.646;2023-03-31T09:50:42;13.9;77.2
79301;SHT31;68755;51.984;5.646;2023-03-31T09:53:18;14.0;76.8
79301;SHT31;68755;51.984;5.646;2023-03-31T09:55:52;14.0;76.4
79301;SHT31;68755;51.984;5.646;2023-03-31T09:58:23;14.0;74.8
79301;SHT31;68755;51.984;5.646;2023-03-31T10:01:02;14.0;74.7
79301;SHT31;68755;51.984;5.646;2023-03-31T10:03:32;14.0;74.4
79301;SHT31;68755;51.984;5.646;2023-03-31T10:06:08;14.0;74.3
79301;SHT31;68755;51.984;5.646;2023-03-31T10:08:42;14.0;73.7
79301;SHT31;68755;51.984;5.646;2023-03-31T10:11:16;14.0;74.6
79301;SHT31;68755;51.984;5.646;2023-03-31T10:13:49;14.0;73.7
79301;SHT31;68755;51.984;5.646;2023-03-31T10:16:30;14.0;74.1
79301;SHT31;68755;51.984;5.646;2023-03-31T10:19:20;14.0;74.2
79301;SHT31;68755;51.984;5.646;2023-03-31T10:21:56;14.0;74.1
79301;SHT31;68755;51.984;5.646;2023-03-31T10:24:37;14.0;74.9
79301;SHT31;68755;51.984;5.646;2023-03-31T10:27:17;14.0;74.2
79301;SHT31;68755;51.984;5.646;2023-03-31T10:29:50;14.1;73.9
79301;SHT31;68755;51.984;5.646;2023-03-31T10:32:26;14.1;73.3
79301;SHT31;68755;51.984;5.646;2023-03-31T10:35:02;14.1;72.8
79301;SHT31;68755;51.984;5.646;2023-03-31T10:37:35;14.2;73.0
79301;SHT31;68755;51.984;5.646;2023-03-31T10:40:17;14.2;72.1
79301;SHT31;68755;51.984;5.646;2023-03-31T10:43:02;14.3;71.5
79301;SHT31;68755;51.984;5.646;2023-03-31T10:45:36;14.3;72.2
79301;SHT31;68755;51.984;5.646;2023-03-31T10:48:19;14.4;71.9
79301;SHT31;68755;51.984;5.646;2023-03-31T10:50:53;14.4;72.9
79301;SHT31;68755;51.984;5.646;2023-03-31T10:53:22;14.5;72.3
79301;SHT31;68755;51.984;5.646;2023-03-31T10:56:23;14.5;70.8
79301;SHT31;68755;51.984;5.646;2023-03-31T10:59:50;14.6;70.6
79301;SHT31;68755;51.984;5.646;2023-03-31T11:03:14;14.6;70.7
79301;SHT31;68755;51.984;5.646;2023-03-31T11:05:50;14.7;71.0
79301;SHT31;68755;51.984;5.646;2023-03-31T11:08:32;14.7;70.2
79301;SHT31;68755;51.984;5.646;2023-03-31T11:11:24;14.8;69.0
79301;SHT31;68755;51.984;5.646;2023-03-31T11:14:01;14.9;69.6
79301;SHT31;68755;51.984;5.646;2023-03-31T11:16:43;14.9;69.3
79301;SHT31;68755;51.984;5.646;2023-03-31T11:19:28;15.0;69.1
79301;SHT31;68755;51.984;5.646;2023-03-31T11:22:07;15.0;68.8
79301;SHT31;68755;51.984;5.646;2023-03-31T11:25:09;15.1;68.7
79301;SHT31;68755;51.984;5.646;2023-03-31T11:28:02;15.2;68.0
79301;SHT31;68755;51.984;5.646;2023-03-31T11:30:39;15.3;68.5
79301;SHT31;68755;51.984;5.646;2023-03-31T11:33:31;15.3;68.8
79301;SHT31;68755;51.984;5.646;2023-03-31T11:36:14;15.3;68.3
79301;SHT31;68755;51.984;5.646;2023-03-31T11:38:58;15.4;67.8
79301;SHT31;68755;51.984;5.646;2023-03-31T11:41:37;15.4;68.2
79301;SHT31;68755;51.984;5.646;2023-03-31T11:44:11;15.4;67.9
79301;SHT31;68755;51.984;5.646;2023-03-31T11:46:46;15.4;67.4
79301;SHT31;68755;51.984;5.646;2023-03-31T11:49:22;15.4;66.3
79301;SHT31;68755;51.984;5.646;2023-03-31T11:51:57;15.4;66.7
79301;SHT31;68755;51.984;5.646;2023-03-31T11:54:35;15.4;66.0
79301;SHT31;68755;51.984;5.646;2023-03-31T11:57:14;15.4;65.5
79301;SHT31;68755;51.984;5.646;2023-03-31T11:59:55;15.4;65.7
79301;SHT31;68755;51.984;5.646;2023-03-31T12:02:38;15.3;66.2
79301;SHT31;68755;51.984;5.646;2023-03-31T12:05:12;15.3;66.3
79301;SHT31;68755;51.984;5.646;2023-03-31T12:07:46;15.3;66.0
79301;SHT31;68755;51.984;5.646;2023-03-31T12:10:21;15.3;66.3
79301;SHT31;68755;51.984;5.646;2023-03-31T12:12:56;15.3;66.6
79301;SHT31;68755;51.984;5.646;2023-03-31T12:15:32;15.3;65.6
79301;SHT31;68755;51.984;5.646;2023-03-31T12:18:11;15.3;65.5
79301;SHT31;68755;51.984;5.646;2023-03-31T12:20:48;15.2;65.4
79301;SHT31;68755;51.984;5.646;2023-03-31T12:23:22;15.2;64.9
79301;SHT31;68755;51.984;5.646;2023-03-31T12:26:01;15.2;65.2
79301;SHT31;68755;51.984;5.646;2023-03-31T12:28:37;15.2;65.2
79301;SHT31;68755;51.984;5.646;2023-03-31T12:31:14;15.2;65.8
79301;SHT31;68755;51.984;5.646;2023-03-31T12:33:54;15.1;66.7
79301;SHT31;68755;51.984;5.646;2023-03-31T12:36:40;15.1;67.3
79301;SHT31;68755;51.984;5.646;2023-03-31T12:39:24;15.1;67.1
79301;SHT31;68755;51.984;5.646;2023-03-31T12:42:14;15.0;68.1
79301;SHT31;68755;51.984;5.646;2023-03-31T12:44:57;15.0;67.7
79301;SHT31;68755;51.984;5.646;2023-03-31T12:47:48;14.9;68.4
79301;SHT31;68755;51.984;5.646;2023-03-31T12:50:52;14.9;68.7
79301;SHT31;68755;51.984;5.646;2023-03-31T12:53:34;14.8;69.6
79301;SHT31;68755;51.984;5.646;2023-03-31T12:56:06;14.8;70.5
79301;SHT31;68755;51.984;5.646;2023-03-31T12:58:45;14.8;70.4
79301;SHT31;68755;51.984;5.646;2023-03-31T13:01:19;14.8;70.9
79301;SHT31;68755;51.984;5.646;2023-03-31T13:04:16;14.8;71.6
79301;SHT31;68755;51.984;5.646;2023-03-31T13:06:54;14.8;71.5
79301;SHT31;68755;51.984;5.646;2023-03-31T13:09:43;14.9;70.9
79301;SHT31;68755;51.984;5.646;2023-03-31T13:12:19;14.9;70.6
79301;SHT31;68755;51.984;5.646;2023-03-31T13:14:51;15.0;71.0
79301;SHT31;68755;51.984;5.646;2023-03-31T13:17:28;15.0;70.6
79301;SHT31;68755;51.984;5.646;2023-03-31T13:20:21;15.0;70.7
79301;SHT31;68755;51.984;5.646;2023-03-31T13:23:01;15.1;67.8
79301;SHT31;68755;51.984;5.646;2023-03-31T13:25:51;15.1;68.4
79301;SHT31;68755;51.984;5.646;2023-03-31T13:28:31;15.2;68.5
79301;SHT31;68755;51.984;5.646;2023-03-31T13:31:04;15.2;68.2
79301;SHT31;68755;51.984;5.646;2023-03-31T13:33:46;15.2;67.7
79301;SHT31;68755;51.984;5.646;2023-03-31T13:36:58;15.3;68.3
79301;SHT31;68755;51.984;5.646;2023-03-31T13:40:07;15.3;67.4
79301;SHT31;68755;51.984;5.646;2023-03-31T13:43:15;15.3;66.6
79301;SHT31;68755;51.984;5.646;2023-03-31T13:45:58;15.3;66.6
79301;SHT31;68755;51.984;5.646;2023-03-31T13:48:46;15.3;66.9
79301;SHT31;68755;51.984;5.646;2023-03-31T13:51:29;15.3;66.9
79301;SHT31;68755;51.984;5.646;2023-03-31T13:54:20;15.3;66.7
79301;SHT31;68755;51.984;5.646;2023-03-31T13:57:11;15.3;67.6
79301;SHT31;68755;51.984;5.646;2023-03-31T14:04:58;15.3;68.7
79301;SHT31;68755;51.984;5.646;2023-03-31T14:07:35;15.3;69.1
79301;SHT31;68755;51.984;5.646;2023-03-31T14:10:22;15.3;69.1
79301;SHT31;68755;51.984;5.646;2023-03-31T14:13:07;15.3;69.7
79301;SHT31;68755;51.984;5.646;2023-03-31T14:15:41;15.3;69.2
79301;SHT31;68755;51.984;5.646;2023-03-31T14:18:17;15.3;69.3
79301;SHT31;68755;51.984;5.646;2023-03-31T14:20:57;15.3;69.2
79301;SHT31;68755;51.984;5.646;2023-03-31T14:23:52;15.3;69.5
79301;SHT31;68755;51.984;5.646;2023-03-31T14:26:41;15.3;68.1
79301;SHT31;68755;51.984;5.646;2023-03-31T14:29:23;15.3;68.0
79301;SHT31;68755;51.984;5.646;2023-03-31T14:32:01;15.2;68.2
79301;SHT31;68755;51.984;5.646;2023-03-31T14:37:44;15.2;68.5
79301;SHT31;68755;51.984;5.646;2023-03-31T14:40:16;15.1;68.1
79301;SHT31;68755;51.984;5.646;2023-03-31T14:42:47;15.1;68.2
79301;SHT31;68755;51.984;5.646;2023-03-31T14:45:21;15.1;69.0
79301;SHT31;68755;51.984;5.646;2023-03-31T14:48:02;15.1;69.6
79301;SHT31;68755;51.984;5.646;2023-03-31T14:50:35;15.1;68.6
79301;SHT31;68755;51.984;5.646;2023-03-31T14:53:14;15.0;68.4
79301;SHT31;68755;51.984;5.646;2023-03-31T14:55:46;15.0;69.1
79301;SHT31;68755;51.984;5.646;2023-03-31T14:58:24;15.0;69.5
79301;SHT31;68755;51.984;5.646;2023-03-31T15:00:55;15.0;69.6
79301;SHT31;68755;51.984;5.646;2023-03-31T15:03:25;15.0;69.1
79301;SHT31;68755;51.984;5.646;2023-03-31T15:05:58;15.0;69.0
79301;SHT31;68755;51.984;5.646;2023-03-31T15:08:31;15.0;69.3
79301;SHT31;68755;51.984;5.646;2023-03-31T15:11:05;14.9;68.9
79301;SHT31;68755;51.984;5.646;2023-03-31T15:13:40;14.9;69.1
79301;SHT31;68755;51.984;5.646;2023-03-31T15:16:28;14.9;68.4
79301;SHT31;68755;51.984;5.646;2023-03-31T15:19:03;14.9;68.8
79301;SHT31;68755;51.984;5.646;2023-03-31T15:21:38;14.8;68.9
79301;SHT31;68755;51.984;5.646;2023-03-31T15:24:11;14.8;69.9
79301;SHT31;68755;51.984;5.646;2023-03-31T15:26:44;14.8;69.9
79301;SHT31;68755;51.984;5.646;2023-03-31T15:29:20;14.7;70.4
79301;SHT31;68755;51.984;5.646;2023-03-31T15:31:55;14.7;70.7
79301;SHT31;68755;51.984;5.646;2023-03-31T15:34:30;14.7;70.8
79301;SHT31;68755;51.984;5.646;2023-03-31T15:37:01;14.7;71.2
79301;SHT31;68755;51.984;5.646;2023-03-31T15:39:32;14.7;71.2
79301;SHT31;68755;51.984;5.646;2023-03-31T15:42:06;14.7;71.1
79301;SHT31;68755;51.984;5.646;2023-03-31T15:44:42;14.7;70.2
79301;SHT31;68755;51.984;5.646;2023-03-31T15:47:20;14.7;70.4
79301;SHT31;68755;51.984;5.646;2023-03-31T15:49:53;14.7;69.0
79301;SHT31;68755;51.984;5.646;2023-03-31T15:52:27;14.7;69.7
79301;SHT31;68755;51.984;5.646;2023-03-31T15:54:59;14.7;69.9
79301;SHT31;68755;51.984;5.646;2023-03-31T15:57:33;14.7;69.8
79301;SHT31;68755;51.984;5.646;2023-03-31T16:00:04;14.6;70.0
79301;SHT31;68755;51.984;5.646;2023-03-31T16:02:42;14.6;70.0
79301;SHT31;68755;51.984;5.646;2023-03-31T16:05:32;14.6;70.2
79301;SHT31;68755;51.984;5.646;2023-03-31T16:08:10;14.6;70.3
79301;SHT31;68755;51.984;5.646;2023-03-31T16:10:42;14.6;70.4
79301;SHT31;68755;51.984;5.646;2023-03-31T16:13:19;14.6;70.6
79301;SHT31;68755;51.984;5.646;2023-03-31T16:15:54;14.6;70.4
79301;SHT31;68755;51.984;5.646;2023-03-31T16:18:31;14.6;70.6
79301;SHT31;68755;51.984;5.646;2023-03-31T16:21:04;14.6;70.7
79301;SHT31;68755;51.984;5.646;2023-03-31T16:23:37;14.6;69.9
79301;SHT31;68755;51.984;5.646;2023-03-31T16:26:11;14.6;69.7
79301;SHT31;68755;51.984;5.646;2023-03-31T16:28:50;14.6;69.7
79301;SHT31;68755;51.984;5.646;2023-03-31T16:31:33;14.6;69.6
79301;SHT31;68755;51.984;5.646;2023-03-31T16:34:07;14.7;69.4
79301;SHT31;68755;51.984;5.646;2023-03-31T16:36:39;14.7;69.2
79301;SHT31;68755;51.984;5.646;2023-03-31T16:39:09;14.7;68.7
79301;SHT31;68755;51.984;5.646;2023-03-31T16:41:39;14.7;69.1
79301;SHT31;68755;51.984;5.646;2023-03-31T16:44:11;14.7;68.9
79301;SHT31;68755;51.984;5.646;2023-03-31T16:46:41;14.7;68.8
79301;SHT31;68755;51.984;5.646;2023-03-31T16:49:11;14.6;68.8
79301;SHT31;68755;51.984;5.646;2023-03-31T16:51:41;14.6;69.2
79301;SHT31;68755;51.984;5.646;2023-03-31T16:54:11;14.6;69.2
79301;SHT31;68755;51.984;5.646;2023-03-31T16:56:40;14.5;69.5
79301;SHT31;68755;51.984;5.646;2023-03-31T16:59:10;14.5;69.6
79301;SHT31;68755;51.984;5.646;2023-03-31T17:01:41;14.4;69.9
79301;SHT31;68755;51.984;5.646;2023-03-31T17:04:12;14.4;70.2
79301;SHT31;68755;51.984;5.646;2023-03-31T17:06:41;14.3;70.2
79301;SHT31;68755;51.984;5.646;2023-03-31T17:09:11;14.3;70.4